HOG weather

Frank Pais International Airport
Holguin, HolguĂ­n, Cuba

Public forecast

Using degrees Celsius for public forecast. Weather courtesy of forecast.io.

METAR (pilot weather report)

Retrieved 2019/05/26 23:50 UTC (40 minutes ago):

MUHG 262350Z 10009KT 9000 FEW020 BKN100 26/23 Q1015

TAF (pilot weather forecast)

Forecast is more than 12 hours old.

Retrieved 2019/05/26 00:03 UTC (1 day ago):

TAF MUHG 262300Z 2700/2724 13012KT 9000 SCT020 BECMG 2702/2704 11005KT BECMG 2715/2717 07012KT TEMPO 2718/2724 VRB10KT 5000 TSRA SCT018CB BKN020